createdAt,value
2023-04-28T00:01:12.668Z,96783.00
2023-04-28T00:03:39.748Z,96786.13
2023-04-28T00:06:06.461Z,96785.94
2023-04-28T00:08:33.273Z,96773.97
2023-04-28T00:11:00.676Z,96784.38
2023-04-28T00:13:27.390Z,96788.78
2023-04-28T00:15:54.369Z,96784.81
2023-04-28T00:18:21.328Z,96789.16
2023-04-28T00:20:48.397Z,96781.25
2023-04-28T00:23:16.008Z,96783.28
2023-04-28T00:25:42.523Z,96779.34
2023-04-28T00:28:09.094Z,96779.94
2023-04-28T00:30:35.677Z,96760.63
2023-04-28T00:33:02.258Z,96758.59
2023-04-28T00:35:28.737Z,96780.91
2023-04-28T00:37:55.402Z,96780.16
2023-04-28T00:40:22.190Z,96777.09
2023-04-28T00:42:48.760Z,96764.72
2023-04-28T00:45:15.246Z,96765.84
2023-04-28T00:47:42.418Z,96713.47
2023-04-28T00:50:10.634Z,96757.50
2023-04-28T00:52:39.249Z,96749.97
2023-04-28T00:55:07.790Z,96753.53
2023-04-28T00:57:34.330Z,96745.00
2023-04-28T01:00:01.106Z,96736.00
2023-04-28T01:02:30.108Z,96728.91
2023-04-28T01:04:59.116Z,96743.28
2023-04-28T01:07:25.690Z,96741.41
2023-04-28T01:09:52.345Z,96727.81
2023-04-28T01:12:23.985Z,96735.78
2023-04-28T01:14:53.018Z,96734.19
2023-04-28T01:17:19.753Z,96729.56
2023-04-28T01:19:46.744Z,96719.53
2023-04-28T01:22:16.558Z,96724.34
2023-04-28T01:24:44.018Z,96700.44
2023-04-28T01:27:12.545Z,96722.47
2023-04-28T01:29:41.011Z,96718.38
2023-04-28T01:32:07.556Z,96708.78
2023-04-28T01:34:34.406Z,96722.53
2023-04-28T01:37:01.255Z,96718.25
2023-04-28T01:39:27.920Z,96691.53
2023-04-28T01:41:55.960Z,96716.34
2023-04-28T01:44:22.400Z,96722.00
2023-04-28T01:46:48.950Z,96704.44
2023-04-28T01:49:15.587Z,96707.50
2023-04-28T01:51:42.889Z,96708.69
2023-04-28T01:54:09.987Z,96718.09
2023-04-28T01:56:36.734Z,96714.03
2023-04-28T01:59:03.816Z,96711.34
2023-04-28T02:01:30.846Z,96713.19
2023-04-28T02:03:57.723Z,96712.28
2023-04-28T02:06:26.808Z,96713.19
2023-04-28T02:08:53.576Z,96719.84
2023-04-28T02:11:20.120Z,96700.53
2023-04-28T02:13:47.114Z,96714.56
2023-04-28T02:16:13.728Z,96719.91
2023-04-28T02:18:42.266Z,96720.13
2023-04-28T02:21:13.005Z,96720.28
2023-04-28T02:23:40.713Z,96717.28
2023-04-28T02:26:07.410Z,96720.47
2023-04-28T02:28:34.099Z,96712.44
2023-04-28T02:31:08.802Z,96690.66
2023-04-28T02:33:36.627Z,96706.91
2023-04-28T02:36:04.865Z,96703.88
2023-04-28T02:38:31.948Z,96694.78
2023-04-28T02:41:04.698Z,96696.69
2023-04-28T02:43:32.689Z,96675.72
2023-04-28T02:45:59.464Z,96696.09
2023-04-28T02:48:26.633Z,96680.34
2023-04-28T02:50:53.462Z,96693.84
2023-04-28T02:53:21.161Z,96680.09
2023-04-28T02:55:48.694Z,96660.50
2023-04-28T02:58:17.797Z,96673.97
2023-04-28T03:00:44.742Z,96692.97
2023-04-28T03:03:11.771Z,96691.44
2023-04-28T03:05:38.584Z,96669.19
2023-04-28T03:08:05.585Z,96654.09
2023-04-28T03:10:32.103Z,96651.31
2023-04-28T03:12:59.825Z,96660.56
2023-04-28T03:15:27.077Z,96650.31
2023-04-28T03:17:53.785Z,96648.63
2023-04-28T03:20:20.474Z,96637.47
2023-04-28T03:22:47.073Z,96629.53
2023-04-28T03:25:13.554Z,96621.00
2023-04-28T03:27:47.574Z,96609.19
2023-04-28T03:30:14.204Z,96630.50
2023-04-28T03:32:40.873Z,96626.50
2023-04-28T03:35:08.312Z,96627.97
2023-04-28T03:37:34.952Z,96626.72
2023-04-28T03:40:03.899Z,96622.53
2023-04-28T03:42:42.150Z,96619.22
2023-04-28T03:45:11.106Z,96620.28
2023-04-28T03:47:37.820Z,96614.25
2023-04-28T03:50:04.676Z,96620.06
2023-04-28T03:52:31.697Z,96623.66
2023-04-28T03:54:58.311Z,96628.13
2023-04-28T03:57:24.996Z,96632.75
2023-04-28T03:59:52.065Z,96627.44
2023-04-28T04:02:18.868Z,96627.03
2023-04-28T04:04:45.583Z,96594.88
2023-04-28T04:07:12.328Z,96619.59
2023-04-28T04:09:39.901Z,96624.81
2023-04-28T04:12:06.581Z,96635.31
2023-04-28T04:14:33.408Z,96631.47
2023-04-28T04:17:00.024Z,96616.41
2023-04-28T04:19:28.059Z,96624.63
2023-04-28T04:21:55.450Z,96622.25
2023-04-28T04:24:22.246Z,96624.06
2023-04-28T04:26:49.026Z,96614.56
2023-04-28T04:29:26.911Z,96618.34
2023-04-28T04:31:53.660Z,96614.16
2023-04-28T04:34:20.079Z,96624.75
2023-04-28T04:36:46.820Z,96619.97
2023-04-28T04:39:14.182Z,96627.16
2023-04-28T04:41:42.462Z,96620.22
2023-04-28T04:44:27.409Z,96604.75
2023-04-28T04:46:56.222Z,96604.41
2023-04-28T04:49:22.797Z,96596.78
2023-04-28T04:51:50.486Z,96585.97
2023-04-28T04:54:17.476Z,96586.81
2023-04-28T04:56:44.688Z,96584.66
2023-04-28T04:59:13.589Z,96585.22
2023-04-28T05:01:46.968Z,96586.13
2023-04-28T05:04:13.561Z,96592.72
2023-04-28T05:06:40.698Z,96573.38
2023-04-28T05:09:07.342Z,96562.38
2023-04-28T05:11:33.960Z,96589.22
2023-04-28T05:14:00.521Z,96591.38
2023-04-28T05:16:27.129Z,96564.63
2023-04-28T05:19:00.578Z,96580.66
2023-04-28T05:21:27.354Z,96582.16
2023-04-28T05:23:53.875Z,96587.84
2023-04-28T05:26:20.769Z,96596.50
2023-04-28T05:28:47.349Z,96587.84
2023-04-28T05:31:14.518Z,96584.63
2023-04-28T05:33:41.057Z,96590.13
2023-04-28T05:36:08.338Z,96593.41
2023-04-28T05:38:35.189Z,96584.06
2023-04-28T05:41:02.468Z,96589.66
2023-04-28T05:43:29.292Z,96585.34
2023-04-28T05:45:56.118Z,96597.97
2023-04-28T05:48:23.396Z,96581.59
2023-04-28T05:50:50.085Z,96585.91
2023-04-28T05:53:16.667Z,96586.94
2023-04-28T05:55:43.358Z,96584.00
2023-04-28T05:58:10.307Z,96564.84
2023-04-28T06:00:37.784Z,96583.75
2023-04-28T06:03:05.534Z,96595.81
2023-04-28T06:05:32.874Z,96592.63
2023-04-28T06:07:59.840Z,96597.16
2023-04-28T06:10:26.510Z,96603.31
2023-04-28T06:12:53.049Z,96597.72
2023-04-28T06:15:19.496Z,96583.28
2023-04-28T06:17:48.408Z,96580.78
2023-04-28T06:20:16.525Z,96600.38
2023-04-28T06:22:43.545Z,96610.38
2023-04-28T06:25:10.130Z,96616.28
2023-04-28T06:27:45.175Z,96614.38
2023-04-28T06:30:19.287Z,96608.91
2023-04-28T06:32:46.244Z,96616.53
2023-04-28T06:35:12.953Z,96610.56
2023-04-28T06:37:39.518Z,96627.09
2023-04-28T06:40:06.349Z,96619.09
2023-04-28T06:42:36.807Z,96612.97
2023-04-28T06:45:11.105Z,96620.38
2023-04-28T06:47:38.686Z,96620.47
2023-04-28T06:50:08.581Z,96602.84
2023-04-28T06:52:39.295Z,96619.13
2023-04-28T06:55:09.726Z,96613.44
2023-04-28T06:57:37.841Z,96597.97
2023-04-28T07:00:05.032Z,96583.09
2023-04-28T07:02:31.761Z,96608.03
2023-04-28T07:04:58.367Z,96600.59
2023-04-28T07:07:24.783Z,96593.16
2023-04-28T07:09:53.244Z,96593.09
2023-04-28T07:12:21.194Z,96582.34
2023-04-28T07:14:47.697Z,96595.03
2023-04-28T07:17:14.187Z,96595.63
2023-04-28T07:19:40.861Z,96590.88
2023-04-28T07:22:07.364Z,96587.44
2023-04-28T07:24:33.892Z,96594.59
2023-04-28T07:27:01.351Z,96595.34
2023-04-28T07:29:33.903Z,96583.00
2023-04-28T07:32:06.832Z,96601.78
2023-04-28T07:34:35.769Z,96601.41
2023-04-28T07:37:03.618Z,96601.41
2023-04-28T07:39:34.801Z,96589.31
2023-04-28T07:42:03.202Z,96586.47
2023-04-28T07:44:30.217Z,96569.97
2023-04-28T07:46:57.424Z,96586.63
2023-04-28T07:49:24.028Z,96585.16
2023-04-28T07:51:53.548Z,96583.56
2023-04-28T07:54:20.317Z,96586.72
2023-04-28T07:56:47.099Z,96575.84
2023-04-28T07:59:14.230Z,96575.22
2023-04-28T08:01:41.324Z,96571.75
2023-04-28T08:04:08.178Z,96573.91
2023-04-28T08:06:36.294Z,96577.75
2023-04-28T08:09:03.910Z,96576.31
2023-04-28T08:11:30.552Z,96572.31
2023-04-28T08:14:01.249Z,96570.03
2023-04-28T08:16:28.488Z,96565.94
2023-04-28T08:18:55.226Z,96566.94
2023-04-28T08:21:21.802Z,96559.22
2023-04-28T08:23:48.240Z,96570.28
2023-04-28T08:26:14.795Z,96563.63
2023-04-28T08:28:41.289Z,96575.28
2023-04-28T08:31:07.930Z,96576.09
2023-04-28T08:33:34.493Z,96583.63
2023-04-28T08:36:01.023Z,96575.94
2023-04-28T08:38:27.612Z,96566.88
2023-04-28T08:40:54.242Z,96553.34
2023-04-28T08:43:21.549Z,96548.97
2023-04-28T08:45:53.821Z,96544.50
2023-04-28T08:48:22.287Z,96543.09
2023-04-28T08:50:51.934Z,96550.38
2023-04-28T08:53:26.039Z,96534.66
2023-04-28T08:55:55.510Z,96551.09
2023-04-28T08:58:24.095Z,96549.41
2023-04-28T09:00:52.193Z,96539.97
2023-04-28T09:03:19.112Z,96548.22
2023-04-28T09:05:46.146Z,96535.44
2023-04-28T09:08:12.751Z,96536.59
2023-04-28T09:10:39.338Z,96535.31
2023-04-28T09:13:05.887Z,96525.06
2023-04-28T09:15:41.455Z,96516.84
2023-04-28T09:18:08.846Z,96525.44
2023-04-28T09:20:36.512Z,96521.56
2023-04-28T09:23:19.129Z,96520.69
2023-04-28T09:26:00.887Z,96523.94
2023-04-28T09:28:29.526Z,96529.34
2023-04-28T09:30:56.279Z,96526.16
2023-04-28T09:33:23.305Z,96528.78
2023-04-28T09:35:50.120Z,96524.88
2023-04-28T09:38:17.408Z,96525.94
2023-04-28T09:41:00.514Z,96537.94
2023-04-28T09:43:32.934Z,96529.59
2023-04-28T09:46:02.842Z,96531.91
2023-04-28T09:48:37.995Z,96530.38
2023-04-28T09:51:06.516Z,96529.19
2023-04-28T09:53:34.524Z,96533.56
2023-04-28T09:56:05.105Z,96532.28
2023-04-28T09:58:34.307Z,96507.25
2023-04-28T10:01:01.802Z,96533.06
2023-04-28T10:03:30.601Z,96534.34
2023-04-28T10:05:58.955Z,96532.47
2023-04-28T10:08:27.497Z,96520.84
2023-04-28T10:10:55.424Z,96524.47
2023-04-28T10:13:23.274Z,96530.63
2023-04-28T10:15:55.424Z,96497.31
2023-04-28T10:18:25.787Z,96514.91
2023-04-28T10:21:00.784Z,96515.63
2023-04-28T10:23:43.604Z,96515.44
2023-04-28T10:26:12.676Z,96505.44
2023-04-28T10:28:46.545Z,96501.38
2023-04-28T10:31:15.301Z,96488.78
2023-04-28T10:33:42.864Z,96502.44
2023-04-28T10:36:10.003Z,96481.53
2023-04-28T10:38:38.002Z,96474.09
2023-04-28T10:41:04.576Z,96489.56
2023-04-28T10:43:31.869Z,96486.75
2023-04-28T10:46:01.729Z,96485.69
2023-04-28T10:48:34.492Z,96482.34
2023-04-28T10:51:07.769Z,96480.28
2023-04-28T10:53:47.477Z,96475.31
2023-04-28T10:56:25.344Z,96461.00
2023-04-28T10:58:53.451Z,96461.84
2023-04-28T11:01:19.926Z,96471.53
2023-04-28T11:03:50.167Z,96474.56
2023-04-28T11:06:26.725Z,96468.47
2023-04-28T11:08:57.965Z,96464.00
2023-04-28T11:11:29.222Z,96441.50
2023-04-28T11:14:17.351Z,96459.09
2023-04-28T11:16:54.542Z,96458.22
2023-04-28T11:19:23.247Z,96452.63
2023-04-28T11:21:50.414Z,96467.25
2023-04-28T11:24:17.303Z,96438.34
2023-04-28T11:26:44.562Z,96459.47
2023-04-28T11:29:12.452Z,96446.44
2023-04-28T11:31:38.926Z,96435.47
2023-04-28T11:34:06.701Z,96460.69
2023-04-28T11:36:35.447Z,96461.50
2023-04-28T11:39:08.116Z,96471.53
2023-04-28T11:41:36.393Z,96447.53
2023-04-28T11:44:11.884Z,96465.50
2023-04-28T11:47:05.317Z,96459.41
2023-04-28T11:49:42.743Z,96468.09
2023-04-28T11:52:09.781Z,96470.78
2023-04-28T11:54:37.119Z,96457.09
2023-04-28T11:57:04.890Z,96468.44
2023-04-28T11:59:34.083Z,96470.25
2023-04-28T12:02:03.288Z,96461.00
2023-04-28T12:04:36.612Z,96460.53
2023-04-28T12:07:13.282Z,96458.91
2023-04-28T12:09:45.088Z,96457.84
2023-04-28T12:12:14.611Z,96456.00
2023-04-28T12:14:56.207Z,96456.16
2023-04-28T12:17:30.933Z,96463.84
2023-04-28T12:19:59.326Z,96462.31
2023-04-28T12:22:26.082Z,96461.81
2023-04-28T12:25:12.449Z,96466.03
2023-04-28T12:27:40.777Z,96458.16
2023-04-28T12:30:19.594Z,96462.38
2023-04-28T12:32:46.496Z,96453.91
2023-04-28T12:35:13.010Z,96458.44
2023-04-28T12:37:39.998Z,96465.53
2023-04-28T12:40:07.427Z,96451.56
2023-04-28T12:42:34.450Z,96472.94
2023-04-28T12:45:02.355Z,96458.16
2023-04-28T12:47:28.907Z,96447.06
2023-04-28T12:49:55.249Z,96466.31
2023-04-28T12:52:22.650Z,96447.03
2023-04-28T12:54:49.474Z,96476.09
2023-04-28T12:57:19.789Z,96472.16
2023-04-28T12:59:47.981Z,96457.88
2023-04-28T13:02:15.386Z,96471.88
2023-04-28T13:04:52.161Z,96474.53
2023-04-28T13:07:19.176Z,96468.44
2023-04-28T13:09:47.261Z,96465.50
2023-04-28T13:12:14.739Z,96437.03
2023-04-28T13:14:41.955Z,96438.09
2023-04-28T13:17:09.155Z,96455.22
2023-04-28T13:19:35.710Z,96427.81
2023-04-28T13:22:05.023Z,96450.78
2023-04-28T13:24:33.426Z,96446.81
2023-04-28T13:27:00.499Z,96421.47
2023-04-28T13:29:27.106Z,96430.94
2023-04-28T13:31:53.673Z,96439.38
2023-04-28T13:34:20.356Z,96429.88
2023-04-28T13:36:48.279Z,96420.94
2023-04-28T13:39:14.984Z,96422.78
2023-04-28T13:41:42.243Z,96439.41
2023-04-28T13:44:09.482Z,96416.97
2023-04-28T13:46:36.059Z,96433.88
2023-04-28T13:49:02.526Z,96435.44
2023-04-28T13:51:29.044Z,96420.41
2023-04-28T13:53:55.479Z,96441.25
2023-04-28T13:56:22.007Z,96439.13
2023-04-28T13:58:49.089Z,96442.81
2023-04-28T14:01:16.043Z,96439.66
2023-04-28T14:03:44.144Z,96429.38
2023-04-28T14:06:11.172Z,96424.38
2023-04-28T14:08:37.677Z,96423.31
2023-04-28T14:11:04.171Z,96449.41
2023-04-28T14:13:30.835Z,96434.31
2023-04-28T14:15:59.641Z,96436.22
2023-04-28T14:18:27.164Z,96439.63
2023-04-28T14:20:54.513Z,96421.16
2023-04-28T14:23:24.401Z,96442.78
2023-04-28T14:25:56.030Z,96424.28
2023-04-28T14:28:22.914Z,96416.03
2023-04-28T14:30:50.119Z,96429.25
2023-04-28T14:33:16.727Z,96426.84
2023-04-28T14:35:43.186Z,96439.56
2023-04-28T14:38:09.769Z,96435.06
2023-04-28T14:40:36.187Z,96431.69
2023-04-28T14:43:02.638Z,96410.31
2023-04-28T14:45:29.188Z,96382.38
2023-04-28T14:47:56.013Z,96419.91
2023-04-28T14:50:22.697Z,96409.63
2023-04-28T14:52:49.592Z,96409.00
2023-04-28T14:55:16.255Z,96400.16
2023-04-28T14:57:42.765Z,96392.38
2023-04-28T15:00:09.431Z,96405.31
2023-04-28T15:02:36.236Z,96391.16
2023-04-28T15:05:03.314Z,96400.59
2023-04-28T15:07:31.921Z,96388.00
2023-04-28T15:09:59.453Z,96401.03
2023-04-28T15:12:26.295Z,96383.00
2023-04-28T15:14:53.809Z,96367.50
2023-04-28T15:17:22.973Z,96343.63
2023-04-28T15:19:49.475Z,96359.91
2023-04-28T15:22:15.923Z,96371.66
2023-04-28T15:24:42.757Z,96373.75
2023-04-28T15:27:09.524Z,96372.94
2023-04-28T15:29:36.043Z,96356.06
2023-04-28T15:32:02.633Z,96346.22
2023-04-28T15:34:29.013Z,96376.03
2023-04-28T15:36:55.577Z,96365.78
2023-04-28T15:39:22.036Z,96368.91
2023-04-28T15:41:48.502Z,96358.56
2023-04-28T15:44:15.348Z,96382.34
2023-04-28T15:46:41.977Z,96359.38
2023-04-28T15:49:08.652Z,96388.25
2023-04-28T15:51:35.143Z,96396.38
2023-04-28T15:54:01.653Z,96392.47
2023-04-28T15:56:28.277Z,96399.53
2023-04-28T15:58:54.813Z,96374.56
2023-04-28T16:01:22.036Z,96398.88
2023-04-28T16:03:48.853Z,96394.50
2023-04-28T16:06:15.547Z,96376.13
2023-04-28T16:08:42.183Z,96399.00
2023-04-28T16:11:10.948Z,96372.47
2023-04-28T16:13:37.536Z,96380.19
2023-04-28T16:16:04.307Z,96406.31
2023-04-28T16:18:31.083Z,96405.81
2023-04-28T16:20:57.593Z,96406.88
2023-04-28T16:23:24.085Z,96420.13
2023-04-28T16:25:51.054Z,96413.81
2023-04-28T16:28:17.696Z,96411.97
2023-04-28T16:30:44.274Z,96411.97
2023-04-28T16:33:10.755Z,96408.81
2023-04-28T16:35:37.291Z,96387.72
2023-04-28T16:38:03.927Z,96398.50
2023-04-28T16:40:30.669Z,96377.13
2023-04-28T16:42:57.529Z,96379.50
2023-04-28T16:45:24.123Z,96377.63
2023-04-28T16:47:50.640Z,96382.69
2023-04-28T16:50:17.713Z,96362.34
2023-04-28T16:52:44.866Z,96386.91
2023-04-28T16:55:11.547Z,96376.06
2023-04-28T16:57:37.934Z,96415.38
2023-04-28T17:00:06.221Z,96395.84
2023-04-28T17:02:33.344Z,96405.06
2023-04-28T17:05:00.289Z,96419.59
2023-04-28T17:07:27.653Z,96407.97
2023-04-28T17:09:54.375Z,96381.06
2023-04-28T17:12:21.075Z,96376.06
2023-04-28T17:14:47.808Z,96380.03
2023-04-28T17:17:14.296Z,96396.09
2023-04-28T17:19:42.092Z,96409.56
2023-04-28T17:22:08.636Z,96414.59
2023-04-28T17:24:35.229Z,96409.53
2023-04-28T17:27:01.820Z,96403.19
2023-04-28T17:29:28.212Z,96418.50
2023-04-28T17:31:54.940Z,96406.88
2023-04-28T17:34:21.547Z,96412.19
2023-04-28T17:36:47.941Z,96435.59
2023-04-28T17:39:16.413Z,96419.25
2023-04-28T17:41:43.616Z,96386.88
2023-04-28T17:44:10.295Z,96384.47
2023-04-28T17:46:38.431Z,96403.69
2023-04-28T17:49:05.433Z,96400.25
2023-04-28T17:51:32.834Z,96398.63
2023-04-28T17:53:59.343Z,96424.69
2023-04-28T17:56:26.342Z,96410.16
2023-04-28T17:58:52.981Z,96423.03
2023-04-28T18:01:19.761Z,96428.34
2023-04-28T18:03:46.666Z,96459.72
2023-04-28T18:06:13.802Z,96435.50
2023-04-28T18:08:40.972Z,96435.47
2023-04-28T18:11:09.893Z,96401.78
2023-04-28T18:13:36.849Z,96407.31
2023-04-28T18:16:05.071Z,96406.44
2023-04-28T18:18:35.395Z,96422.59
2023-04-28T18:21:03.222Z,96397.28
2023-04-28T18:23:30.634Z,96374.59
2023-04-28T18:25:57.163Z,96350.66
2023-04-28T18:28:23.817Z,96339.06
2023-04-28T18:30:50.668Z,96341.06
2023-04-28T18:33:19.962Z,96387.91
2023-04-28T18:35:48.759Z,96390.50
2023-04-28T18:38:15.302Z,96390.59
2023-04-28T18:40:41.911Z,96392.94
2023-04-28T18:43:10.377Z,96408.75
2023-04-28T18:45:40.966Z,96418.47
2023-04-28T18:48:08.624Z,96412.91
2023-04-28T18:50:36.191Z,96415.59
2023-04-28T18:53:04.255Z,96415.09
2023-04-28T18:55:33.434Z,96403.38
2023-04-28T18:58:01.911Z,96414.50
2023-04-28T19:00:28.693Z,96426.53
2023-04-28T19:02:55.140Z,96422.66
2023-04-28T19:05:22.363Z,96428.66
2023-04-28T19:07:48.942Z,96421.44
2023-04-28T19:10:15.684Z,96414.78
2023-04-28T19:12:42.143Z,96431.66
2023-04-28T19:15:08.626Z,96438.03
2023-04-28T19:17:35.229Z,96424.03
2023-04-28T19:20:02.413Z,96440.66
2023-04-28T19:22:35.067Z,96439.84
2023-04-28T19:25:02.415Z,96448.53
2023-04-28T19:27:38.061Z,96430.25
2023-04-28T19:30:07.292Z,96442.31
2023-04-28T19:32:34.175Z,96431.50
2023-04-28T19:35:02.750Z,96446.16
2023-04-28T19:37:29.733Z,96442.69
2023-04-28T19:39:56.394Z,96435.31
2023-04-28T19:42:22.866Z,96443.63
2023-04-28T19:44:55.165Z,96446.31
2023-04-28T19:47:25.296Z,96469.59
2023-04-28T19:49:52.798Z,96465.78
2023-04-28T19:52:23.446Z,96454.59
2023-04-28T19:54:50.510Z,96461.94
2023-04-28T19:57:17.636Z,96469.03
2023-04-28T19:59:45.153Z,96463.25
2023-04-28T20:02:11.661Z,96485.16
2023-04-28T20:04:38.249Z,96495.00
2023-04-28T20:07:05.804Z,96473.22
2023-04-28T20:09:36.577Z,96481.31
2023-04-28T20:12:05.408Z,96474.53
2023-04-28T20:14:32.545Z,96456.31
2023-04-28T20:17:01.629Z,96490.13
2023-04-28T20:19:28.196Z,96483.72
2023-04-28T20:21:54.657Z,96508.16
2023-04-28T20:24:21.221Z,96497.28
2023-04-28T20:26:49.350Z,96514.03
2023-04-28T20:29:16.131Z,96507.34
2023-04-28T20:31:42.770Z,96513.78
2023-04-28T20:34:09.339Z,96488.41
2023-04-28T20:36:35.963Z,96518.78
2023-04-28T20:39:02.435Z,96515.97
2023-04-28T20:41:28.831Z,96514.50
2023-04-28T20:43:55.391Z,96510.31
2023-04-28T20:46:21.904Z,96510.47
2023-04-28T20:48:48.458Z,96488.16
2023-04-28T20:51:14.908Z,96500.06
2023-04-28T20:53:42.926Z,96485.97
2023-04-28T20:56:09.455Z,96484.28
2023-04-28T20:58:35.831Z,96495.38
2023-04-28T21:01:02.475Z,96482.00
2023-04-28T21:03:30.502Z,96488.44
2023-04-28T21:05:57.145Z,96500.78
2023-04-28T21:08:23.579Z,96514.09
2023-04-28T21:10:50.110Z,96491.00
2023-04-28T21:13:16.499Z,96512.66
2023-04-28T21:15:43.082Z,96496.22
2023-04-28T21:18:09.721Z,96511.69
2023-04-28T21:20:36.408Z,96507.09
2023-04-28T21:23:02.955Z,96501.94
2023-04-28T21:25:30.067Z,96502.16
2023-04-28T21:27:57.010Z,96479.44
2023-04-28T21:30:24.050Z,96491.69
2023-04-28T21:32:50.642Z,96514.50
2023-04-28T21:35:17.188Z,96467.22
2023-04-28T21:37:43.588Z,96508.28
2023-04-28T21:40:10.380Z,96505.16
2023-04-28T21:42:36.930Z,96488.50
2023-04-28T21:45:03.536Z,96508.34
2023-04-28T21:47:30.110Z,96498.69
2023-04-28T21:49:56.629Z,96518.78
2023-04-28T21:52:23.013Z,96521.66
2023-04-28T21:54:49.506Z,96509.34
2023-04-28T21:57:15.902Z,96513.78
2023-04-28T21:59:42.446Z,96507.91
2023-04-28T22:17:50.731Z,96503.09
2023-04-28T22:20:17.374Z,96487.44
2023-04-28T22:22:43.859Z,96495.91
2023-04-28T22:25:10.319Z,96493.88
2023-04-28T22:27:36.801Z,96496.38
2023-04-28T22:30:03.973Z,96489.09
2023-04-28T22:32:30.556Z,96495.47
2023-04-28T22:34:56.978Z,96491.25
2023-04-28T22:37:23.558Z,96479.34
2023-04-28T22:39:50.149Z,96492.59
2023-04-28T22:42:16.858Z,96489.75
2023-04-28T22:44:43.595Z,96495.28
2023-04-28T22:47:10.463Z,96484.31
2023-04-28T22:49:37.082Z,96481.13
2023-04-28T22:52:04.077Z,96491.16
2023-04-28T22:54:31.891Z,96488.22
2023-04-28T22:56:59.258Z,96484.78
2023-04-28T22:59:26.495Z,96485.84
2023-04-28T23:01:54.758Z,96473.84
2023-04-28T23:04:21.742Z,96469.41
2023-04-28T23:06:48.624Z,96491.38
2023-04-28T23:09:15.219Z,96476.31
2023-04-28T23:11:41.805Z,96482.91
2023-04-28T23:14:08.317Z,96482.47
2023-04-28T23:16:34.815Z,96486.72
2023-04-28T23:19:02.022Z,96475.88
2023-04-28T23:21:28.802Z,96477.72
2023-04-28T23:23:55.385Z,96484.09
2023-04-28T23:26:22.074Z,96492.03
2023-04-28T23:28:48.637Z,96471.44
2023-04-28T23:31:15.154Z,96486.09
2023-04-28T23:33:41.788Z,96476.34
2023-04-28T23:36:09.085Z,96480.06
2023-04-28T23:38:35.652Z,96478.00
2023-04-28T23:41:02.176Z,96472.25
2023-04-28T23:43:29.023Z,96457.97
2023-04-28T23:45:55.601Z,96467.56
2023-04-28T23:48:22.510Z,96473.19
2023-04-28T23:50:49.238Z,96459.72
2023-04-28T23:53:15.840Z,96460.09
2023-04-28T23:55:42.252Z,96463.00
2023-04-28T23:58:09.144Z,96450.28
